createdAt,value
2023-04-18T00:00:41.206Z,14.80
2023-04-18T00:03:27.088Z,19.30
2023-04-18T00:06:12.945Z,17.80
2023-04-18T00:08:57.366Z,14.07
2023-04-18T00:11:41.439Z,15.47
2023-04-18T00:14:25.316Z,16.73
2023-04-18T00:17:10.478Z,17.10
2023-04-18T00:19:56.574Z,22.47
2023-04-18T00:22:42.630Z,20.73
2023-04-18T00:25:26.970Z,14.47
2023-04-18T00:28:11.123Z,14.00
2023-04-18T00:30:55.087Z,13.37
2023-04-18T00:33:38.887Z,13.17
2023-04-18T00:36:24.081Z,18.50
2023-04-18T00:39:08.064Z,15.80
2023-04-18T00:41:52.017Z,15.30
2023-04-18T00:44:35.808Z,15.10
2023-04-18T00:47:19.921Z,13.93
2023-04-18T00:50:04.173Z,16.13
2023-04-18T00:52:50.104Z,16.53
2023-04-18T00:55:34.320Z,18.60
2023-04-18T00:58:20.101Z,14.90
2023-04-18T01:01:04.140Z,15.07
2023-04-18T01:03:48.246Z,13.27
2023-04-18T01:06:32.254Z,15.57
2023-04-18T01:09:17.467Z,17.70
2023-04-18T01:12:01.978Z,18.90
2023-04-18T01:14:45.823Z,18.93
2023-04-18T01:17:29.771Z,15.67
2023-04-18T01:20:16.944Z,18.00
2023-04-18T01:23:01.330Z,15.13
2023-04-18T01:25:47.090Z,18.03
2023-04-18T01:28:31.001Z,16.17
2023-04-18T01:31:14.903Z,18.33
2023-04-18T01:33:58.789Z,22.43
2023-04-18T01:36:42.676Z,14.27
2023-04-18T01:39:29.303Z,15.40
2023-04-18T01:42:14.605Z,15.90
2023-04-18T01:44:58.556Z,16.37
2023-04-18T01:47:42.524Z,14.30
2023-04-18T01:50:29.189Z,15.03
2023-04-18T01:53:13.021Z,13.93
2023-04-18T01:55:57.802Z,15.60
2023-04-18T01:58:43.005Z,15.23
2023-04-18T02:01:26.984Z,14.70
2023-04-18T02:04:10.928Z,15.73
2023-04-18T02:06:55.495Z,14.87
2023-04-18T02:09:39.431Z,15.17
2023-04-18T02:12:23.687Z,16.70
2023-04-18T02:15:10.703Z,15.70
2023-04-18T02:17:55.445Z,15.93
2023-04-18T02:20:40.704Z,15.50
2023-04-18T02:23:24.691Z,16.63
2023-04-18T02:26:08.595Z,18.60
2023-04-18T02:28:52.758Z,16.40
2023-04-18T02:31:41.770Z,18.90
2023-04-18T02:34:25.829Z,20.00
2023-04-18T02:37:09.785Z,18.00
2023-04-18T02:39:55.358Z,16.40
2023-04-18T02:42:39.191Z,16.60
2023-04-18T02:45:23.224Z,17.83
2023-04-18T02:48:08.947Z,18.27
2023-04-18T02:50:53.056Z,20.00
2023-04-18T02:53:37.014Z,18.30
2023-04-18T02:56:20.899Z,17.60
2023-04-18T02:59:23.301Z,18.43
2023-04-18T03:02:25.788Z,18.30
2023-04-18T03:05:16.707Z,14.97
2023-04-18T03:08:01.017Z,15.80
2023-04-18T03:10:45.665Z,16.77
2023-04-18T03:13:29.820Z,16.97
2023-04-18T03:16:14.885Z,19.63
2023-04-18T03:19:00.013Z,16.47
2023-04-18T03:21:45.689Z,18.03
2023-04-18T03:24:29.708Z,15.73
2023-04-18T03:27:17.060Z,15.20
2023-04-18T03:30:02.675Z,15.57
2023-04-18T03:32:50.110Z,13.13
2023-04-18T03:35:34.113Z,14.80
2023-04-18T03:38:19.456Z,15.80
2023-04-18T03:41:03.269Z,19.60
2023-04-18T03:43:51.035Z,20.50
2023-04-18T03:46:35.155Z,15.07
2023-04-18T03:49:20.010Z,16.47
2023-04-18T03:52:04.713Z,19.70
2023-04-18T03:54:50.294Z,18.40
2023-04-18T03:57:36.992Z,15.47
2023-04-18T04:00:25.311Z,19.20
2023-04-18T04:03:16.677Z,16.37
2023-04-18T04:06:03.518Z,15.23
2023-04-18T04:08:47.432Z,15.03
2023-04-18T04:11:37.381Z,15.90
2023-04-18T04:14:24.668Z,15.93
2023-04-18T04:17:10.568Z,16.20
2023-04-18T04:19:56.135Z,18.50
2023-04-18T04:22:40.117Z,19.10
2023-04-18T04:25:24.818Z,14.67
2023-04-18T04:28:13.328Z,14.20
2023-04-18T04:31:10.333Z,13.47
2023-04-18T04:33:55.370Z,15.67
2023-04-18T04:36:41.331Z,16.13
2023-04-18T04:39:28.270Z,17.43
2023-04-18T04:42:49.222Z,14.83
2023-04-18T04:45:41.581Z,15.17
2023-04-18T04:48:25.682Z,19.30
2023-04-18T04:51:10.850Z,24.03
2023-04-18T04:53:54.732Z,20.67
2023-04-18T04:56:39.437Z,17.67
2023-04-18T04:59:23.668Z,13.87
2023-04-18T05:02:09.168Z,15.13
2023-04-18T05:04:53.401Z,15.47
2023-04-18T05:07:37.260Z,17.37
2023-04-18T05:10:21.821Z,14.63
2023-04-18T05:13:05.750Z,15.97
2023-04-18T05:15:49.694Z,19.00
2023-04-18T05:18:35.113Z,23.17
2023-04-18T05:21:19.058Z,19.40
2023-04-18T05:24:02.930Z,16.57
2023-04-18T05:26:46.785Z,15.60
2023-04-18T05:29:30.664Z,17.70
2023-04-18T05:32:14.872Z,15.67
2023-04-18T05:35:00.502Z,21.90
2023-04-18T05:37:44.514Z,18.53
2023-04-18T05:40:28.569Z,14.33
2023-04-18T05:43:12.761Z,14.93
2023-04-18T05:45:58.082Z,15.13
2023-04-18T05:48:42.086Z,13.40
2023-04-18T05:51:28.748Z,14.93
2023-04-18T05:54:12.969Z,15.60
2023-04-18T05:56:58.776Z,12.60
2023-04-18T05:59:42.689Z,12.17
2023-04-18T06:02:27.186Z,13.87
2023-04-18T06:05:11.670Z,11.97
2023-04-18T06:07:57.468Z,13.30
2023-04-18T06:10:41.441Z,12.93
2023-04-18T06:13:26.780Z,11.63
2023-04-18T06:16:10.588Z,11.20
2023-04-18T06:18:55.095Z,16.67
2023-04-18T06:21:39.908Z,14.87
2023-04-18T06:24:25.262Z,13.43
2023-04-18T06:27:17.534Z,13.77
2023-04-18T06:30:06.137Z,11.47
2023-04-18T06:32:50.686Z,15.07
2023-04-18T06:35:35.083Z,13.13
2023-04-18T06:38:19.769Z,15.03
2023-04-18T06:41:05.487Z,13.03
2023-04-18T06:44:02.823Z,10.67
2023-04-18T06:46:48.249Z,13.60
2023-04-18T06:49:32.497Z,10.67
2023-04-18T06:52:16.776Z,13.23
2023-04-18T06:55:00.894Z,11.20
2023-04-18T06:57:46.330Z,11.30
2023-04-18T07:00:30.397Z,10.70
2023-04-18T07:03:14.669Z,11.17
2023-04-18T07:05:58.733Z,12.10
2023-04-18T07:08:42.863Z,9.00
2023-04-18T07:11:27.226Z,9.87
2023-04-18T07:14:13.317Z,9.07
2023-04-18T07:16:57.741Z,8.83
2023-04-18T07:19:42.399Z,8.43
2023-04-18T07:22:26.265Z,9.40
2023-04-18T07:25:10.818Z,17.40
2023-04-18T07:27:54.647Z,9.50
2023-04-18T07:30:39.855Z,10.27
2023-04-18T07:33:23.743Z,10.33
2023-04-18T07:36:08.307Z,8.70
2023-04-18T07:38:52.595Z,8.80
2023-04-18T07:41:36.773Z,12.23
2023-04-18T07:44:21.575Z,8.30
2023-04-18T07:47:10.473Z,10.20
2023-04-18T07:49:54.314Z,10.10
2023-04-18T07:52:39.392Z,8.90
2023-04-18T07:55:23.665Z,7.60
2023-04-18T07:58:07.551Z,7.63
2023-04-18T08:00:51.379Z,7.27
2023-04-18T08:03:37.264Z,7.87
2023-04-18T08:06:21.572Z,7.60
2023-04-18T08:09:05.713Z,7.38
2023-04-18T08:11:49.645Z,6.50
2023-04-18T08:14:33.661Z,12.45
2023-04-18T08:17:17.583Z,14.73
2023-04-18T08:20:06.925Z,8.52
2023-04-18T08:25:41.206Z,7.80
2023-04-18T08:28:25.029Z,7.63
2023-04-18T08:31:13.486Z,22.92
2023-04-18T08:33:57.460Z,17.17
2023-04-18T08:36:42.789Z,45.93
2023-04-18T08:39:26.666Z,10.70
2023-04-18T08:42:11.864Z,14.67
2023-04-18T08:44:56.134Z,11.13
2023-04-18T08:47:40.004Z,11.43
2023-04-18T08:50:24.064Z,9.77
2023-04-18T08:53:09.550Z,13.57
2023-04-18T08:55:55.285Z,13.13
2023-04-18T08:58:39.049Z,15.40
2023-04-18T09:01:23.068Z,14.30
2023-04-18T09:04:08.029Z,12.83
2023-04-18T09:06:53.799Z,11.73
2023-04-18T09:09:47.906Z,13.50
2023-04-18T09:12:32.788Z,11.97
2023-04-18T09:15:19.140Z,11.32
2023-04-18T09:18:03.555Z,11.65
2023-04-18T09:20:49.901Z,11.52
2023-04-18T09:23:33.816Z,10.20
2023-04-18T09:26:33.936Z,10.82
2023-04-18T09:29:18.690Z,11.20
2023-04-18T09:32:03.264Z,11.32
2023-04-18T09:34:47.350Z,12.05
2023-04-18T09:37:31.203Z,10.40
2023-04-18T09:40:18.156Z,10.40
2023-04-18T09:43:19.378Z,10.60
2023-04-18T09:46:04.897Z,9.07
2023-04-18T09:48:48.819Z,9.48
2023-04-18T09:51:34.380Z,10.13
2023-04-18T09:54:19.867Z,8.57
2023-04-18T09:57:07.537Z,11.82
2023-04-18T09:59:56.306Z,11.77
2023-04-18T10:02:49.012Z,9.20
2023-04-18T10:05:34.914Z,11.77
2023-04-18T10:08:19.097Z,10.27
2023-04-18T10:11:03.144Z,7.25
2023-04-18T10:13:50.613Z,8.20
2023-04-18T10:16:37.591Z,8.87
2023-04-18T10:19:24.261Z,8.90
2023-04-18T10:22:08.333Z,8.20
2023-04-18T10:24:57.142Z,9.18
2023-04-18T10:28:00.504Z,8.95
2023-04-18T10:31:03.023Z,8.32
2023-04-18T10:34:00.746Z,11.00
2023-04-18T10:37:06.279Z,7.05
2023-04-18T10:39:58.624Z,6.35
2023-04-18T10:43:01.026Z,7.72
2023-04-18T10:45:45.034Z,7.53
2023-04-18T10:48:31.390Z,6.13
2023-04-18T10:51:19.115Z,6.25
2023-04-18T10:54:04.952Z,5.90
2023-04-18T10:56:55.394Z,7.65
2023-04-18T10:59:41.195Z,7.18
2023-04-18T11:02:28.910Z,9.05
2023-04-18T11:05:13.818Z,6.15
2023-04-18T11:07:59.007Z,6.75
2023-04-18T11:10:42.904Z,5.32
2023-04-18T11:13:26.976Z,5.65
2023-04-18T11:16:10.814Z,5.63
2023-04-18T11:18:55.108Z,4.93
2023-04-18T11:21:38.978Z,6.07
2023-04-18T11:24:25.137Z,4.80
2023-04-18T11:27:11.142Z,5.28
2023-04-18T11:29:55.855Z,4.93
2023-04-18T11:32:40.095Z,5.10
2023-04-18T11:35:24.258Z,4.43
2023-04-18T11:38:09.031Z,4.30
2023-04-18T11:40:54.285Z,7.22
2023-04-18T11:43:38.278Z,25.15
2023-04-18T11:46:22.127Z,5.03
2023-04-18T11:49:06.199Z,4.43
2023-04-18T11:51:49.942Z,4.32
2023-04-18T11:54:38.682Z,4.80
2023-04-18T11:57:26.461Z,3.88
2023-04-18T12:00:12.564Z,3.60
2023-04-18T12:02:57.001Z,4.78
2023-04-18T12:05:41.220Z,4.78
2023-04-18T12:08:26.860Z,6.57
2023-04-18T12:11:10.796Z,4.43
2023-04-18T12:13:58.158Z,6.35
2023-04-18T12:16:43.173Z,4.18
2023-04-18T12:19:28.801Z,4.32
2023-04-18T12:22:16.930Z,3.78
2023-04-18T12:25:10.541Z,4.63
2023-04-18T12:27:58.044Z,4.28
2023-04-18T12:30:43.844Z,4.43
2023-04-18T12:33:28.020Z,3.80
2023-04-18T12:36:11.852Z,4.97
2023-04-18T12:38:56.031Z,4.75
2023-04-18T12:41:39.854Z,3.95
2023-04-18T12:44:24.692Z,3.22
2023-04-18T12:47:10.774Z,4.28
2023-04-18T12:49:54.619Z,3.17
2023-04-18T12:52:40.869Z,4.13
2023-04-18T12:55:25.947Z,3.78
2023-04-18T12:58:09.919Z,3.70
2023-04-18T13:00:53.855Z,6.28
2023-04-18T13:03:39.233Z,4.50
2023-04-18T13:06:24.534Z,5.72
2023-04-18T13:09:09.257Z,4.68
2023-04-18T13:11:53.096Z,6.45
2023-04-18T13:14:36.934Z,3.90
2023-04-18T13:17:21.006Z,3.50
2023-04-18T13:20:07.561Z,3.65
2023-04-18T13:22:51.422Z,4.20
2023-04-18T13:25:35.477Z,4.20
2023-04-18T13:28:19.244Z,7.32
2023-04-18T13:31:03.219Z,7.55
2023-04-18T13:33:47.010Z,7.60
2023-04-18T13:36:34.834Z,7.68
2023-04-18T13:39:19.249Z,7.63
2023-04-18T13:42:04.567Z,7.13
2023-04-18T13:44:48.559Z,8.35
2023-04-18T13:47:32.552Z,7.75
2023-04-18T13:50:16.618Z,9.05
2023-04-18T13:53:01.993Z,8.13
2023-04-18T13:55:46.018Z,8.02
2023-04-18T13:58:29.927Z,7.88
2023-04-18T14:01:14.199Z,7.25
2023-04-18T14:03:58.254Z,8.18
2023-04-18T14:06:42.458Z,7.97
2023-04-18T14:09:28.327Z,7.68
2023-04-18T14:12:12.540Z,7.45
2023-04-18T14:14:56.370Z,7.40
2023-04-18T14:17:40.397Z,7.38
2023-04-18T14:20:24.402Z,6.70
2023-04-18T14:23:08.165Z,7.22
2023-04-18T14:25:53.357Z,6.60
2023-04-18T14:28:37.216Z,7.43
2023-04-18T14:31:21.197Z,7.22
2023-04-18T14:34:05.684Z,7.53
2023-04-18T14:36:49.481Z,7.47
2023-04-18T14:39:33.400Z,7.40
2023-04-18T14:42:19.965Z,7.55
2023-04-18T14:45:05.262Z,10.07
2023-04-18T14:47:49.270Z,8.45
2023-04-18T14:50:33.187Z,7.93
2023-04-18T14:53:17.126Z,7.85
2023-04-18T14:56:01.229Z,8.60
2023-04-18T14:58:46.634Z,8.18
2023-04-18T15:01:30.473Z,7.82
2023-04-18T15:04:14.915Z,7.85
2023-04-18T15:06:59.039Z,7.18
2023-04-18T15:09:42.981Z,8.10
2023-04-18T15:12:26.860Z,8.55
2023-04-18T15:15:12.935Z,7.85
2023-04-18T15:17:56.866Z,7.90
2023-04-18T15:20:41.083Z,7.57
2023-04-18T15:23:24.962Z,6.72
2023-04-18T15:26:08.914Z,7.10
2023-04-18T15:28:55.635Z,6.25
2023-04-18T15:31:40.862Z,8.07
2023-04-18T15:34:25.616Z,5.00
2023-04-18T15:37:09.600Z,3.88
2023-04-18T15:39:53.605Z,4.38
2023-04-18T15:42:37.543Z,3.95
2023-04-18T15:45:21.954Z,4.85
2023-04-18T15:48:07.980Z,6.07
2023-04-18T15:50:52.281Z,5.78
2023-04-18T15:53:36.219Z,12.68
2023-04-18T15:56:20.013Z,6.00
2023-04-18T15:59:06.065Z,8.15
2023-04-18T16:01:50.195Z,7.25
2023-04-18T16:04:36.118Z,9.50
2023-04-18T16:07:20.329Z,10.32
2023-04-18T16:10:04.458Z,8.57
2023-04-18T16:12:48.862Z,8.25
2023-04-18T16:15:33.111Z,8.77
2023-04-18T16:18:17.280Z,6.30
2023-04-18T16:21:03.169Z,5.17
2023-04-18T16:23:46.943Z,5.00
2023-04-18T16:26:30.880Z,5.77
2023-04-18T16:29:14.735Z,5.47
2023-04-18T16:31:58.744Z,6.63
2023-04-18T16:34:42.590Z,6.93
2023-04-18T16:37:27.930Z,6.05
2023-04-18T16:40:12.424Z,6.35
2023-04-18T16:42:56.290Z,6.65
2023-04-18T16:45:40.269Z,10.40
2023-04-18T16:48:24.402Z,12.50
2023-04-18T16:51:08.476Z,11.25
2023-04-18T16:53:53.653Z,11.23
2023-04-18T16:56:37.708Z,11.07
2023-04-18T16:59:21.606Z,13.00
2023-04-18T17:02:05.681Z,12.83
2023-04-18T17:04:49.677Z,13.33
2023-04-18T17:07:33.578Z,11.13
2023-04-18T17:10:19.244Z,12.47
2023-04-18T17:13:04.632Z,10.07
2023-04-18T17:15:48.459Z,11.27
2023-04-18T17:18:32.335Z,11.23
2023-04-18T17:21:16.238Z,11.53
2023-04-18T17:24:03.599Z,11.60
2023-04-18T17:26:49.310Z,13.53
2023-04-18T17:29:33.346Z,12.33
2023-04-18T17:32:17.766Z,15.87
2023-04-18T17:35:04.355Z,25.73
2023-04-18T17:37:50.609Z,13.27
2023-04-18T17:40:35.333Z,12.80
2023-04-18T17:43:20.821Z,10.60
2023-04-18T17:46:04.730Z,10.97
2023-04-18T17:48:48.577Z,13.13
2023-04-18T17:51:32.495Z,12.67
2023-04-18T17:54:16.549Z,12.57
2023-04-18T17:57:00.382Z,13.90
2023-04-18T17:59:45.731Z,14.70
2023-04-18T18:02:29.701Z,13.83
2023-04-18T18:05:16.727Z,13.47
2023-04-18T18:08:01.492Z,13.67
2023-04-18T18:10:47.118Z,15.03
2023-04-18T18:13:31.170Z,14.00
2023-04-18T18:16:16.494Z,12.33
2023-04-18T18:19:00.494Z,12.27
2023-04-18T18:21:44.536Z,10.57
2023-04-18T18:24:28.412Z,10.33
2023-04-18T18:27:12.494Z,11.07
2023-04-18T18:29:56.518Z,10.87
2023-04-18T18:32:41.970Z,11.10
2023-04-18T18:35:25.898Z,9.83
2023-04-18T18:38:10.262Z,9.73
2023-04-18T18:40:54.179Z,9.73
2023-04-18T18:43:38.168Z,11.03
2023-04-18T18:46:22.320Z,12.83
2023-04-18T18:49:08.339Z,16.83
2023-04-18T18:51:52.266Z,16.80
2023-04-18T18:54:36.430Z,15.47
2023-04-18T18:57:20.908Z,15.57
2023-04-18T19:00:05.340Z,14.40
2023-04-18T19:02:49.931Z,11.70
2023-04-18T19:05:36.006Z,10.80
2023-04-18T19:08:20.171Z,11.47
2023-04-18T19:11:04.630Z,12.67
2023-04-18T19:13:49.023Z,13.47
2023-04-18T19:16:34.454Z,15.33
2023-04-18T19:19:18.812Z,17.13
2023-04-18T19:22:04.649Z,16.43
2023-04-18T19:24:49.646Z,18.37
2023-04-18T19:27:34.138Z,17.47
2023-04-18T19:30:18.345Z,17.10
2023-04-18T19:33:02.962Z,20.60
2023-04-18T19:35:47.299Z,16.00
2023-04-18T19:38:34.204Z,17.63
2023-04-18T19:41:18.396Z,17.53
2023-04-18T19:44:02.481Z,15.83
2023-04-18T19:46:46.868Z,15.43
2023-04-18T19:49:31.532Z,13.50
2023-04-18T19:52:16.898Z,14.43
2023-04-18T19:55:02.678Z,13.90
2023-04-18T19:57:47.713Z,15.30
2023-04-18T20:00:32.013Z,15.13
2023-04-18T20:03:17.310Z,15.20
2023-04-18T20:06:01.552Z,12.40
2023-04-18T20:08:46.130Z,12.63
2023-04-18T20:11:31.517Z,17.73
2023-04-18T20:14:15.325Z,20.90
2023-04-18T20:16:59.192Z,21.97
2023-04-18T20:19:43.109Z,22.30
2023-04-18T20:22:27.355Z,22.60
2023-04-18T20:25:11.337Z,23.63
2023-04-18T20:27:56.585Z,23.40
2023-04-18T20:30:40.575Z,24.00
2023-04-18T20:33:24.495Z,24.70
2023-04-18T20:36:08.558Z,27.37
2023-04-18T20:38:52.450Z,25.53
2023-04-18T20:41:37.035Z,25.53
2023-04-18T20:44:22.333Z,29.03
2023-04-18T20:47:06.443Z,29.57
2023-04-18T20:49:50.512Z,28.27
2023-04-18T20:52:34.273Z,27.87
2023-04-18T20:55:18.144Z,29.47
2023-04-18T20:58:02.049Z,26.00
2023-04-18T21:00:48.362Z,26.53
2023-04-18T21:03:32.479Z,21.80
2023-04-18T21:06:16.550Z,15.07
2023-04-18T21:09:00.360Z,24.73
2023-04-18T21:11:44.177Z,25.57
2023-04-18T21:14:27.984Z,16.30
2023-04-18T21:17:17.386Z,20.83
2023-04-18T21:20:01.318Z,19.43
2023-04-18T21:22:46.905Z,24.87
2023-04-18T21:25:30.581Z,16.17
2023-04-18T21:28:14.444Z,17.07
2023-04-18T21:30:58.203Z,12.77
2023-04-18T21:33:43.395Z,13.93
2023-04-18T21:36:28.610Z,9.30
2023-04-18T21:39:12.502Z,10.93
2023-04-18T21:41:57.276Z,10.60
2023-04-18T21:44:41.310Z,11.50
2023-04-18T21:47:25.993Z,9.83
2023-04-18T21:50:12.332Z,8.37
2023-04-18T21:52:56.153Z,11.17
2023-04-18T21:55:39.980Z,11.60
2023-04-18T21:58:23.827Z,12.80
2023-04-18T22:01:07.877Z,12.20
2023-04-18T22:03:52.167Z,11.20
2023-04-18T22:06:37.560Z,16.47
2023-04-18T22:09:21.480Z,13.87
2023-04-18T22:12:05.971Z,11.73
2023-04-18T22:14:49.684Z,11.87
2023-04-18T22:17:34.134Z,13.77
2023-04-18T22:20:18.577Z,11.67
2023-04-18T22:23:04.399Z,8.77
2023-04-18T22:25:48.158Z,12.17
2023-04-18T22:28:32.463Z,13.07
2023-04-18T22:31:16.357Z,8.37
2023-04-18T22:34:00.327Z,11.07
2023-04-18T22:36:45.641Z,7.00
2023-04-18T22:39:31.193Z,7.20
2023-04-18T22:42:15.094Z,7.03
2023-04-18T22:44:58.973Z,7.30
2023-04-18T22:47:42.834Z,7.17
2023-04-18T22:50:27.462Z,7.90
2023-04-18T22:53:11.463Z,7.70
2023-04-18T22:55:56.554Z,8.00
2023-04-18T22:58:40.324Z,8.00
2023-04-18T23:01:24.125Z,7.80
2023-04-18T23:04:08.377Z,8.13
2023-04-18T23:06:52.357Z,8.03
2023-04-18T23:09:36.171Z,8.30
2023-04-18T23:12:22.030Z,6.60
2023-04-18T23:15:06.811Z,7.57
2023-04-18T23:17:53.142Z,7.07
2023-04-18T23:20:37.978Z,7.50
2023-04-18T23:23:21.805Z,6.90
2023-04-18T23:26:13.768Z,6.80
2023-04-18T23:28:59.142Z,7.40
2023-04-18T23:31:43.221Z,6.93
2023-04-18T23:34:27.275Z,7.47
2023-04-18T23:37:11.298Z,7.60
2023-04-18T23:39:55.421Z,7.53
2023-04-18T23:42:39.453Z,8.13
2023-04-18T23:45:25.691Z,7.80
2023-04-18T23:48:09.711Z,7.90
2023-04-18T23:50:53.967Z,9.23
2023-04-18T23:53:38.067Z,10.23
2023-04-18T23:56:23.320Z,10.30
2023-04-18T23:59:08.211Z,9.47
